Time;durP1;ratioP1;P1;durP2;ratioP2;P2;SDS_P1;SDS_P2;PMS_P1;PMS_P2;Temp;Humidity;BMP_temperature;BMP_pressure;BME280_temperature;BME280_humidity;BME280_pressure;Samples;Min_cycle;Max_cycle;Signal;HPM_P1;HPM_P2
2021/10/09 00:00:06;;;;;;;2.38;1.75;;;;;;;29.23;18.53;94924.13;5072004;28;20048;-45
2021/10/09 00:02:33;;;;;;;2.10;1.77;;;;;;;29.19;18.50;94926.84;5073507;28;20394;-48
2021/10/09 00:05:01;;;;;;;1.73;1.60;;;;;;;29.05;18.67;94926.88;5072929;28;20052;-54
2021/10/09 00:07:28;;;;;;;2.00;1.80;;;;;;;28.99;18.74;94928.47;5073293;28;20048;-45
2021/10/09 00:09:59;;;;;;;1.48;1.30;;;;;;;29.23;18.29;94921.44;5073374;28;20052;-46
2021/10/09 00:12:27;;;;;;;4.50;1.40;;;;;;;29.25;18.38;94924.50;5074193;28;20044;-46
2021/10/09 00:14:55;;;;;;;1.55;1.35;;;;;;;29.38;18.68;94931.72;5074095;28;20350;-46
2021/10/09 00:17:24;;;;;;;1.70;1.10;;;;;;;30.63;17.95;94918.13;5062272;28;20474;-49
2021/10/09 00:19:51;;;;;;;2.30;0.90;;;;;;;29.74;18.50;94912.69;5053507;28;20068;-45
2021/10/09 00:22:18;;;;;;;1.50;0.98;;;;;;;29.54;18.38;94920.53;5053690;28;20064;-45
2021/10/09 00:24:45;;;;;;;1.40;1.00;;;;;;;29.27;18.49;94922.19;5053663;28;20372;-51
2021/10/09 00:27:13;;;;;;;1.05;0.70;;;;;;;29.17;18.71;94918.38;5064283;28;20379;-47
2021/10/09 00:29:41;;;;;;;1.33;0.80;;;;;;;29.38;18.64;94912.88;5045612;28;20048;-46
2021/10/09 00:32:08;;;;;;;1.20;0.90;;;;;;;29.22;18.58;94915.28;5053152;28;20451;-47
2021/10/09 00:34:35;;;;;;;2.40;1.27;;;;;;;29.29;18.64;94907.16;5035944;28;20053;-59
2021/10/09 00:37:02;;;;;;;1.38;0.85;;;;;;;29.18;18.63;94903.78;5053326;28;20041;-50
2021/10/09 00:39:30;;;;;;;1.85;0.88;;;;;;;29.26;18.55;94902.56;5057313;28;20056;-53
2021/10/09 00:41:57;;;;;;;1.60;0.98;;;;;;;29.21;18.29;94902.97;5057535;28;20080;-45
2021/10/09 00:44:25;;;;;;;2.08;1.20;;;;;;;29.24;18.78;94904.88;5057479;28;20049;-45
2021/10/09 00:46:52;;;;;;;2.15;1.23;;;;;;;29.07;18.80;94900.34;5056937;28;20067;-51
2021/10/09 00:49:19;;;;;;;2.35;1.45;;;;;;;29.18;18.84;94898.38;5056056;28;20053;-45
2021/10/09 00:51:47;;;;;;;2.67;1.33;;;;;;;29.17;18.76;94902.25;5055028;28;20048;-46
2021/10/09 00:54:16;;;;;;;1.58;1.40;;;;;;;29.06;18.79;94907.66;5057195;28;20056;-46
2021/10/09 00:56:44;;;;;;;1.73;1.20;;;;;;;29.13;18.82;94896.09;5067713;28;20039;-45
2021/10/09 00:59:11;;;;;;;3.10;1.20;;;;;;;29.18;18.76;94903.78;5077028;28;20052;-46
2021/10/09 01:01:38;;;;;;;1.63;1.00;;;;;;;29.03;18.51;94897.69;5053677;28;20375;-46
2021/10/09 01:04:06;;;;;;;1.10;0.80;;;;;;;29.06;18.40;94894.19;5057053;28;20395;-55
2021/10/09 01:06:33;;;;;;;1.33;0.80;;;;;;;29.28;18.32;94897.56;5048065;28;20059;-45
2021/10/09 01:09:04;;;;;;;2.75;0.95;;;;;;;29.11;18.69;94893.03;5076863;28;20048;-57
2021/10/09 01:11:31;;;;;;;1.50;0.70;;;;;;;29.17;18.86;94903.00;5059354;28;20053;-46
2021/10/09 01:14:01;;;;;;;1.20;0.70;;;;;;;28.94;18.76;94899.25;5059079;28;20055;-52
2021/10/09 01:16:29;;;;;;;2.15;0.73;;;;;;;28.96;18.93;94891.56;5058786;28;20041;-55
2021/10/09 01:18:58;;;;;;;2.85;0.70;;;;;;;29.08;18.95;94889.19;5058781;28;20052;-46
2021/10/09 01:21:26;;;;;;;1.58;0.90;;;;;;;29.02;18.98;94879.22;5052637;28;20049;-46
2021/10/09 01:23:58;;;;;;;1.70;0.88;;;;;;;29.13;18.63;94885.31;5039082;28;20440;-45
2021/10/09 01:26:25;;;;;;;1.50;0.95;;;;;;;29.08;18.82;94886.50;5038512;28;20462;-45
2021/10/09 01:28:53;;;;;;;1.55;0.80;;;;;;;29.20;18.61;94885.31;5040226;28;20049;-46
2021/10/09 01:31:20;;;;;;;0.80;0.50;;;;;;;29.17;18.67;94880.72;5043359;28;20045;-53
2021/10/09 01:33:48;;;;;;;1.83;0.90;;;;;;;29.25;18.58;94886.81;5038986;28;20153;-50
2021/10/09 01:36:20;;;;;;;;;;;;;;;29.13;18.90;94890.69;5041968;28;20045;-47
2021/10/09 01:38:50;;;;;;;1.02;0.65;;;;;;;28.93;19.17;94886.97;5055163;28;19913;-54
2021/10/09 01:41:20;;;;;;;0.98;0.68;;;;;;;29.01;19.01;94883.09;5055360;28;20044;-48
2021/10/09 01:43:47;;;;;;;1.42;0.70;;;;;;;29.20;18.68;94879.91;5055300;28;20049;-66
2021/10/09 01:46:15;;;;;;;1.25;0.63;;;;;;;29.08;19.10;94886.50;5054915;28;20060;-46
2021/10/09 01:48:43;;;;;;;0.90;0.60;;;;;;;29.05;18.85;94873.06;5057939;28;20493;-50
2021/10/09 01:51:11;;;;;;;1.60;0.65;;;;;;;28.99;19.13;94878.09;5058354;28;20055;-46
2021/10/09 01:53:40;;;;;;;1.00;0.63;;;;;;;29.11;18.69;94872.25;5076499;28;20048;-49
2021/10/09 01:56:07;;;;;;;1.20;0.80;;;;;;;29.24;18.46;94853.75;5054182;28;20044;-54
2021/10/09 01:58:36;;;;;;;1.00;0.70;;;;;;;29.04;18.73;94874.22;5040145;28;20045;-47
2021/10/09 02:01:06;;;;;;;1.50;0.82;;;;;;;29.03;18.94;94872.69;5058088;28;20391;-52
2021/10/09 02:03:33;;;;;;;1.00;0.90;;;;;;;28.87;18.81;94867.75;5054328;28;20057;-57
2021/10/09 02:06:00;;;;;;;1.48;1.00;;;;;;;28.89;19.03;94867.34;5055019;28;20216;-53
2021/10/09 02:08:27;;;;;;;1.65;0.88;;;;;;;29.04;18.90;94866.91;5053973;28;20045;-45
2021/10/09 02:11:00;;;;;;;2.85;1.00;;;;;;;29.01;18.94;94872.31;5058286;28;20055;-45
2021/10/09 02:13:36;;;;;;;0.90;0.60;;;;;;;29.14;18.76;94871.47;5057908;28;20320;-51
2021/10/09 02:16:51;;;;;;;1.20;0.70;;;;;;;29.07;18.77;94871.50;5057523;28;20048;-47
2021/10/09 02:24:50;;;;;;;1.10;0.70;;;;;;;29.11;18.69;94871.50;5054549;28;20459;-60
2021/10/09 02:27:11;;;;;;;1.10;1.00;;;;;;;29.25;18.73;94870.66;5053414;28;20448;-58
2021/10/09 02:29:40;;;;;;;1.52;0.80;;;;;;;29.16;18.77;94868.41;5054408;28;20103;-53
2021/10/09 02:32:07;;;;;;;1.38;0.80;;;;;;;28.83;19.00;94867.75;5053661;28;20048;-46
2021/10/09 02:34:35;;;;;;;1.50;0.98;;;;;;;29.28;18.61;94865.25;5049943;28;20050;-46
2021/10/09 02:37:03;;;;;;;1.73;1.00;;;;;;;28.90;18.97;94871.59;5057667;28;20041;-56
2021/10/09 02:39:34;;;;;;;1.63;0.98;;;;;;;29.10;18.52;94872.66;5057579;28;20055;-45
2021/10/09 02:42:01;;;;;;;1.15;0.90;;;;;;;29.10;18.72;94875.34;5057077;28;20044;-45
2021/10/09 02:44:28;;;;;;;1.30;1.00;;;;;;;29.13;18.81;94872.63;5045944;28;20068;-49
2021/10/09 02:46:55;;;;;;;1.15;0.90;;;;;;;29.12;18.76;94883.78;5037317;28;20363;-56
2021/10/09 02:49:22;;;;;;;1.83;1.20;;;;;;;29.05;18.70;94875.75;5055049;28;20048;-46
2021/10/09 02:51:49;;;;;;;1.27;1.00;;;;;;;29.12;18.49;94870.31;5036965;28;20056;-47
2021/10/09 02:54:16;;;;;;;1.90;1.23;;;;;;;29.11;18.50;94877.63;5054298;28;20049;-52
2021/10/09 02:56:44;;;;;;;1.35;1.10;;;;;;;29.01;18.46;94867.69;5054159;28;20049;-46
2021/10/09 02:59:11;;;;;;;1.30;1.17;;;;;;;29.10;18.64;94875.34;5053358;28;20049;-44
2021/10/09 03:01:38;;;;;;;4.10;1.17;;;;;;;29.09;18.22;94869.19;5052724;28;20355;-45
2021/10/09 03:04:05;;;;;;;2.08;1.30;;;;;;;29.12;18.55;94870.31;5044112;28;20382;-57
2021/10/09 03:06:32;;;;;;;1.35;1.10;;;;;;;28.86;18.84;94866.97;5056367;28;20048;-48
2021/10/09 03:08:59;;;;;;;1.20;0.93;;;;;;;29.11;18.29;94871.50;5073949;28;20055;-46
2021/10/09 03:11:26;;;;;;;2.90;1.20;;;;;;;28.80;18.79;94865.84;5044865;28;20359;-52
2021/10/09 03:13:53;;;;;;;1.70;1.30;;;;;;;29.00;18.67;94876.16;5038653;28;20053;-47
2021/10/09 03:16:21;;;;;;;2.10;1.25;;;;;;;28.66;19.00;94862.44;5052329;28;20367;-45
2021/10/09 03:18:48;;;;;;;1.63;1.38;;;;;;;28.96;18.60;94875.41;5052451;28;20055;-48
2021/10/09 03:21:15;;;;;;;1.90;1.50;;;;;;;29.08;18.52;94873.03;5062760;28;20052;-46
2021/10/09 03:23:42;;;;;;;2.25;1.50;;;;;;;28.94;18.68;94877.75;5056008;28;20048;-48
2021/10/09 03:26:10;;;;;;;1.42;1.10;;;;;;;28.99;18.97;94874.63;5055293;28;20049;-46
2021/10/09 03:28:37;;;;;;;3.67;1.23;;;;;;;28.96;18.47;94861.97;5055470;28;20049;-46
2021/10/09 03:31:05;;;;;;;2.95;1.40;;;;;;;29.10;18.51;94870.72;5046974;28;20056;-46
2021/10/09 03:33:35;;;;;;;3.40;1.15;;;;;;;28.99;18.75;94866.56;5055872;28;20055;-49
2021/10/09 03:36:02;;;;;;;1.80;1.20;;;;;;;28.91;18.69;94857.75;5056206;28;20052;-45
2021/10/09 03:38:30;;;;;;;1.35;1.20;;;;;;;29.00;18.58;94865.41;5056355;28;20052;-45
2021/10/09 03:41:05;;;;;;;1.55;1.20;;;;;;;28.84;18.61;94863.91;5048255;28;20051;-45
2021/10/09 03:43:32;;;;;;;1.67;1.20;;;;;;;29.09;18.48;94863.81;5061728;28;20055;-47
2021/10/09 03:49:06;;;;;;;1.48;1.10;;;;;;;28.83;18.58;94865.06;5051932;28;20057;-50
2021/10/09 03:54:16;;;;;;;1.63;1.30;;;;;;;28.97;18.58;94866.19;5059492;28;20427;-47
2021/10/09 03:56:43;;;;;;;2.10;1.50;;;;;;;28.81;18.71;94866.59;5054736;28;20052;-48
2021/10/09 03:59:10;;;;;;;1.58;1.17;;;;;;;28.71;18.53;94865.50;5073686;28;20052;-46
2021/10/09 04:01:38;;;;;;;2.05;1.30;;;;;;;28.78;18.91;94870.84;5050208;28;20057;-46
2021/10/09 04:04:06;;;;;;;1.65;1.20;;;;;;;28.95;18.61;94858.50;5041037;28;20557;-46
2021/10/09 04:06:33;;;;;;;1.90;1.50;;;;;;;29.14;18.50;94860.69;5073579;28;20434;-45
2021/10/09 04:09:01;;;;;;;2.25;1.38;;;;;;;28.92;18.57;94858.53;5055007;28;20386;-46
2021/10/09 04:11:28;;;;;;;1.58;1.25;;;;;;;28.69;18.61;94859.75;5055513;28;20390;-47
2021/10/09 04:13:55;;;;;;;1.45;1.33;;;;;;;28.86;18.64;94863.53;5054335;28;20056;-44
2021/10/09 04:16:23;;;;;;;1.42;1.20;;;;;;;28.63;18.80;94872.06;5055338;28;20053;-52
2021/10/09 04:18:50;;;;;;;2.10;1.38;;;;;;;28.82;18.28;94860.81;5055034;28;20402;-46
2021/10/09 04:21:18;;;;;;;1.70;1.13;;;;;;;28.86;18.45;94861.59;5055666;28;20052;-46
2021/10/09 04:23:50;;;;;;;1.73;1.45;;;;;;;28.83;18.32;94862.38;5055147;28;20376;-59
2021/10/09 04:26:18;;;;;;;1.98;1.23;;;;;;;28.89;18.34;94864.66;5055142;28;20044;-50
2021/10/09 04:28:45;;;;;;;1.48;1.23;;;;;;;28.80;18.36;94873.91;5055615;28;20371;-67
2021/10/09 04:31:12;;;;;;;1.95;1.50;;;;;;;28.84;18.27;94871.97;5072627;28;20378;-53
2021/10/09 04:33:39;;;;;;;1.65;1.40;;;;;;;28.68;18.46;94874.34;5055318;28;20063;-46
2021/10/09 04:36:09;;;;;;;2.70;1.73;;;;;;;28.82;18.30;94874.28;5054983;28;20041;-46
2021/10/09 04:38:37;;;;;;;1.90;1.60;;;;;;;29.01;18.42;94875.00;5055500;28;20045;-50
2021/10/09 04:41:04;;;;;;;2.75;1.90;;;;;;;28.69;18.35;94878.56;5054725;28;20059;-50
2021/10/09 04:43:32;;;;;;;3.15;2.35;;;;;;;29.02;18.51;94868.47;5063919;28;20053;-46
2021/10/09 04:45:59;;;;;;;2.17;1.95;;;;;;;28.79;18.50;94869.69;5055101;28;20040;-48
2021/10/09 04:48:28;;;;;;;3.08;2.22;;;;;;;28.74;18.05;94875.47;5055670;28;20044;-47
2021/10/09 04:50:56;;;;;;;2.47;2.25;;;;;;;29.06;17.79;94869.22;5055388;28;20443;-46
2021/10/09 04:53:24;;;;;;;4.07;2.30;;;;;;;28.87;17.96;94873.13;5073017;28;20059;-49
2021/10/09 04:55:52;;;;;;;2.83;2.63;;;;;;;28.94;18.30;94875.06;5054824;28;20071;-46
2021/10/09 04:58:19;;;;;;;3.70;3.22;;;;;;;28.91;18.26;94867.75;5055175;28;20059;-49
2021/10/09 05:00:48;;;;;;;3.22;2.83;;;;;;;28.85;18.40;94876.22;5062384;28;20387;-47
2021/10/09 05:03:16;;;;;;;3.92;3.15;;;;;;;28.83;18.42;94883.88;5052790;28;20053;-48
2021/10/09 05:05:43;;;;;;;3.60;3.28;;;;;;;29.05;17.99;94887.28;5052513;28;20048;-47
2021/10/09 05:08:11;;;;;;;2.80;2.50;;;;;;;28.91;17.97;94889.28;5051994;28;20053;-52
2021/10/09 05:10:42;;;;;;;3.40;2.63;;;;;;;28.88;18.20;94887.34;5052097;28;20049;-54
2021/10/09 05:13:13;;;;;;;2.72;2.30;;;;;;;28.56;18.44;94880.91;5052178;28;20468;-44
2021/10/09 05:15:43;;;;;;;3.60;2.70;;;;;;;29.03;18.23;94878.06;5050597;28;20375;-47
2021/10/09 05:18:15;;;;;;;3.05;2.63;;;;;;;28.70;18.71;94885.47;5051975;28;20422;-52
2021/10/09 05:20:43;;;;;;;3.60;2.97;;;;;;;28.88;18.37;94885.44;5050979;28;20053;-45
2021/10/09 05:23:15;;;;;;;2.90;2.60;;;;;;;28.72;18.55;94885.09;5051911;28;20044;-47
2021/10/09 05:25:43;;;;;;;3.05;2.70;;;;;;;28.98;17.88;94889.25;5052906;28;20056;-49
2021/10/09 05:28:16;;;;;;;3.90;2.88;;;;;;;29.16;17.75;94882.63;5054761;28;20048;-48
2021/10/09 05:30:49;;;;;;;3.08;2.70;;;;;;;29.19;18.20;94885.69;5054833;28;20033;-46
2021/10/09 05:35:44;;;;;;;3.28;2.85;;;;;;;29.01;18.45;94885.78;5054781;28;20045;-45
2021/10/09 05:38:12;;;;;;;4.13;3.30;;;;;;;29.01;18.39;94891.91;5054903;28;20049;-45
2021/10/09 05:40:39;;;;;;;3.75;2.88;;;;;;;28.82;18.35;94893.13;5056179;28;20049;-48
2021/10/09 05:43:06;;;;;;;5.82;3.50;;;;;;;29.00;18.27;94889.63;5055024;28;20057;-49
2021/10/09 05:45:34;;;;;;;3.78;3.30;;;;;;;28.85;18.37;94897.75;5054544;28;20490;-46
2021/10/09 05:48:02;;;;;;;3.95;3.10;;;;;;;29.08;18.26;94899.97;5053465;28;20048;-45
2021/10/09 05:50:38;;;;;;;3.78;3.35;;;;;;;28.81;18.39;94902.34;5054823;28;20056;-45
2021/10/09 05:55:51;;;;;;;3.75;3.42;;;;;;;28.82;18.26;94906.56;5053674;28;20049;-45
2021/10/09 06:26:00;;;;;;;3.95;3.65;;;;;;;28.95;18.46;94927.72;5054925;28;20055;-45
2021/10/09 06:31:45;;;;;;;5.93;5.00;;;;;;;28.88;18.35;94933.09;5043161;28;20049;-44
2021/10/09 06:59:31;;;;;;;5.60;4.18;;;;;;;29.04;18.24;94919.97;5060252;28;20056;-46
2021/10/09 07:01:58;;;;;;;5.13;4.30;;;;;;;29.13;18.43;94928.38;5045782;28;20072;-45
2021/10/09 07:04:26;;;;;;;5.57;4.47;;;;;;;29.15;17.99;94931.47;5053887;28;20049;-45
2021/10/09 07:06:55;;;;;;;5.32;4.35;;;;;;;29.20;18.41;94922.22;5052924;28;20056;-45
2021/10/09 07:09:35;;;;;;;6.28;4.03;;;;;;;29.04;18.80;94933.44;5053211;28;20663;-44
2021/10/09 07:12:12;;;;;;;8.27;7.03;;;;;;;29.70;18.64;94938.91;5052533;28;20063;-58
2021/10/09 07:14:39;;;;;;;37.25;33.60;;;;;;;30.31;18.49;94940.00;5060477;28;20061;-49
2021/10/09 07:17:06;;;;;;;38.50;34.80;;;;;;;29.79;18.76;94939.22;5056290;28;20040;-53
2021/10/09 07:19:33;;;;;;;30.10;27.00;;;;;;;28.76;19.78;94943.09;5056368;28;20045;-51
2021/10/09 07:22:02;;;;;;;19.92;16.65;;;;;;;30.32;18.20;94936.13;5069662;28;20276;-49
2021/10/09 07:24:32;;;;;;;14.52;12.77;;;;;;;31.28;16.93;94940.56;5059518;28;20478;-41
2021/10/09 07:26:59;;;;;;;13.40;12.00;;;;;;;31.74;16.75;94939.19;5053621;28;20056;-48
2021/10/09 07:29:26;;;;;;;14.63;11.65;;;;;;;32.12;16.27;94933.59;5053826;28;20059;-40
2021/10/09 07:31:54;;;;;;;13.18;11.23;;;;;;;32.69;16.07;94944.25;5050087;28;20048;-46
2021/10/09 07:34:21;;;;;;;20.50;13.93;;;;;;;33.24;15.80;94937.41;5058374;28;20053;-44
2021/10/09 07:36:48;;;;;;;19.48;13.75;;;;;;;33.28;16.03;94935.38;5055276;28;20079;-50
2021/10/09 07:39:15;;;;;;;21.67;15.25;;;;;;;32.77;17.00;94942.16;5053783;28;20067;-41
2021/10/09 07:41:43;;;;;;;18.27;14.13;;;;;;;33.10;17.11;94937.69;5053803;28;20340;-42
2021/10/09 07:44:10;;;;;;;14.35;9.43;;;;;;;32.71;16.43;94939.16;5067106;28;20048;-52
2021/10/09 07:46:37;;;;;;;15.90;11.43;;;;;;;33.32;16.28;94938.81;5072844;28;20059;-52
2021/10/09 07:49:04;;;;;;;12.40;9.25;;;;;;;33.67;15.64;94936.53;5073092;28;20047;-54
2021/10/09 07:51:31;;;;;;;12.85;9.30;;;;;;;32.99;16.19;94947.97;5057400;28;20053;-61
2021/10/09 07:54:00;;;;;;;7.20;6.25;;;;;;;32.14;16.55;94955.59;5063821;28;20045;-67
2021/10/09 07:56:27;;;;;;;8.02;6.88;;;;;;;31.48;17.15;94953.41;5061167;28;20056;-49
2021/10/09 07:58:54;;;;;;;9.55;7.28;;;;;;;32.87;17.22;94957.47;5054975;28;20336;-50
2021/10/09 08:01:21;;;;;;;8.73;6.80;;;;;;;33.92;16.50;94955.75;5057859;28;20053;-51
2021/10/09 08:03:48;;;;;;;8.98;6.38;;;;;;;35.26;15.30;94947.31;5053963;28;20053;-43
2021/10/09 08:06:15;;;;;;;8.43;6.32;;;;;;;35.76;14.75;94948.59;5041768;28;20048;-48
2021/10/09 08:08:42;;;;;;;7.63;5.03;;;;;;;33.61;16.02;94955.25;5065605;28;20048;-49
2021/10/09 08:11:09;;;;;;;7.05;5.30;;;;;;;31.89;17.61;94951.31;5053659;28;20040;-47
2021/10/09 08:13:37;;;;;;;7.90;6.75;;;;;;;32.45;17.88;94954.31;5053662;28;20051;-47
2021/10/09 08:16:04;;;;;;;9.02;6.85;;;;;;;32.70;17.68;94958.53;5057733;28;20382;-47
2021/10/09 08:18:31;;;;;;;8.25;7.25;;;;;;;33.04;17.22;94952.88;5073560;28;20059;-46
2021/10/09 08:21:04;;;;;;;8.95;7.00;;;;;;;33.09;17.31;94955.91;5072347;28;20430;-50
2021/10/09 08:26:44;;;;;;;8.63;6.90;;;;;;;33.55;17.19;94967.75;5058894;28;20079;-46
2021/10/09 08:40:16;;;;;;;9.52;7.15;;;;;;;34.19;16.78;94966.34;5073552;28;20052;-44
2021/10/09 08:42:44;;;;;;;7.53;6.75;;;;;;;34.26;16.29;94968.88;5069520;28;20060;-43
2021/10/09 08:45:13;;;;;;;8.95;8.05;;;;;;;34.24;16.53;94968.53;5072154;28;20052;-42
2021/10/09 08:47:43;;;;;;;10.15;8.93;;;;;;;33.98;17.03;94967.59;5072766;28;20367;-45
2021/10/09 08:50:11;;;;;;;10.18;8.90;;;;;;;34.50;16.60;94974.16;5073062;28;20390;-45
2021/10/09 08:52:54;;;;;;;48.33;28.80;;;;;;;34.71;16.33;94970.91;5067935;28;20064;-47
2021/10/09 08:55:24;;;;;;;120.95;72.10;;;;;;;34.83;16.14;94970.19;5046391;28;20048;-45
2021/10/09 08:57:52;;;;;;;112.50;69.68;;;;;;;34.96;16.16;94972.22;5052750;28;20049;-46
2021/10/09 09:00:22;;;;;;;98.28;65.93;;;;;;;35.11;15.83;94970.63;5061010;28;20059;-45
2021/10/09 09:03:13;;;;;;;27.05;19.48;;;;;;;34.81;16.02;94967.13;5051195;28;20053;-48
2021/10/09 09:33:40;;;;;;;4.80;2.70;;;;;;;33.53;15.55;94974.75;5075976;28;20059;-45
2021/10/09 09:36:24;;;;;;;4.25;3.60;;;;;;;33.04;16.40;94978.03;5075361;28;20055;-49
2021/10/09 09:39:06;;;;;;;4.35;3.53;;;;;;;32.80;17.01;94981.97;5056237;28;20048;-46
2021/10/09 09:42:02;;;;;;;3.78;2.63;;;;;;;30.86;18.61;94976.88;5055849;28;20057;-50
2021/10/09 09:44:29;;;;;;;10.57;9.57;;;;;;;31.95;18.21;94980.59;5041627;28;20079;-50
2021/10/09 09:47:06;;;;;;;11.23;8.73;;;;;;;33.72;16.33;94977.44;5052645;28;20040;-49
2021/10/09 09:49:34;;;;;;;6.47;4.15;;;;;;;33.55;16.34;94989.41;5057452;28;20056;-51
2021/10/09 09:52:02;;;;;;;4.25;3.25;;;;;;;32.69;17.33;94997.59;5055846;28;20080;-50
2021/10/09 09:54:30;;;;;;;20.95;15.60;;;;;;;31.97;17.60;94989.06;5060074;28;20359;-53
2021/10/09 09:57:01;;;;;;;8.55;6.90;;;;;;;31.77;17.65;95000.56;5067264;28;20055;-45
2021/10/09 09:59:33;;;;;;;6.82;5.07;;;;;;;31.66;18.13;94989.06;5075601;28;20474;-46
2021/10/09 10:02:04;;;;;;;7.03;4.32;;;;;;;31.50;17.96;94997.03;5063647;28;20067;-46
2021/10/09 10:04:36;;;;;;;6.25;3.72;;;;;;;31.57;17.87;94991.53;5075512;28;20044;-42
2021/10/09 10:07:03;;;;;;;4.85;3.40;;;;;;;30.19;19.35;94996.31;5071039;28;20056;-48
2021/10/09 10:09:31;;;;;;;4.60;3.50;;;;;;;31.40;18.39;94995.19;5054568;28;20060;-46
2021/10/09 10:12:00;;;;;;;5.80;4.10;;;;;;;30.08;19.76;94983.69;5055011;28;20068;-45
2021/10/09 10:14:28;;;;;;;5.85;4.32;;;;;;;31.08;19.23;94990.91;5059320;28;20359;-48
2021/10/09 10:16:59;;;;;;;7.30;5.00;;;;;;;31.42;19.30;94987.47;5040758;28;20450;-45
2021/10/09 10:19:51;;;;;;;24.98;15.77;;;;;;;32.14;18.69;94971.81;5075504;28;20052;-48
2021/10/09 10:22:39;;;;;;;28.35;22.00;;;;;;;34.05;16.87;94982.94;5065466;28;20052;-45
2021/10/09 10:25:26;;;;;;;10.60;7.72;;;;;;;33.50;16.80;94987.22;5064922;28;20049;-45
2021/10/09 10:28:06;;;;;;;7.00;5.60;;;;;;;31.57;19.13;94983.41;5063379;28;20363;-44
2021/10/09 10:30:35;;;;;;;16.63;13.40;;;;;;;32.04;18.00;94978.16;5062496;28;20060;-55
2021/10/09 10:33:05;;;;;;;11.27;8.18;;;;;;;33.06;17.22;94986.53;5073929;28;20071;-51
2021/10/09 10:35:35;;;;;;;9.52;6.72;;;;;;;32.15;17.70;94989.56;5054906;28;20056;-45
2021/10/09 10:38:12;;;;;;;8.30;5.78;;;;;;;32.04;18.13;94984.34;5054534;28;20049;-44
2021/10/09 10:40:50;;;;;;;5.70;4.93;;;;;;;32.08;17.75;94981.56;5054762;28;20060;-53
2021/10/09 10:43:34;;;;;;;5.97;5.13;;;;;;;33.12;17.67;94984.09;5054911;28;20049;-52
2021/10/09 10:46:27;;;;;;;9.55;5.95;;;;;;;34.38;16.93;94975.63;5055745;28;20048;-45
2021/10/09 10:49:05;;;;;;;11.60;6.32;;;;;;;35.10;16.11;94978.03;5054584;28;20055;-46
2021/10/09 10:57:09;;;;;;;6.60;4.70;;;;;;;33.60;17.27;94983.53;5039896;28;20463;-48
2021/10/09 11:00:11;;;;;;;6.38;4.53;;;;;;;36.10;15.04;94981.38;5056638;28;20056;-46
2021/10/09 11:02:39;;;;;;;12.05;9.75;;;;;;;34.15;16.97;94981.94;5042258;28;20061;-44
2021/10/09 11:05:10;;;;;;;11.73;8.07;;;;;;;34.01;17.02;94984.97;5044014;28;20044;-44
2021/10/09 11:07:38;;;;;;;20.85;16.58;;;;;;;33.92;16.89;94979.38;5065722;28;20044;-45
2021/10/09 11:10:16;;;;;;;15.77;10.88;;;;;;;36.79;13.71;94982.72;5062998;28;20044;-51
2021/10/09 11:12:49;;;;;;;16.30;5.72;;;;;;;35.92;13.72;94981.16;5054457;28;20053;-51
2021/10/09 11:15:26;;;;;;;4.75;3.50;;;;;;;34.52;15.14;94977.97;5054116;28;20056;-50
2021/10/09 11:17:56;;;;;;;5.38;3.00;;;;;;;33.34;15.91;94979.03;5053928;28;20071;-45
2021/10/09 11:20:25;;;;;;;3.97;3.22;;;;;;;33.29;16.13;94966.69;5054215;28;20044;-57
2021/10/09 11:22:54;;;;;;;4.28;3.20;;;;;;;33.04;16.33;94978.03;5053514;28;20051;-48
2021/10/09 11:25:33;;;;;;;5.47;3.20;;;;;;;32.19;17.07;94974.81;5053896;28;20454;-49
2021/10/09 11:28:05;;;;;;;3.60;2.80;;;;;;;31.23;18.17;94970.72;5068019;28;20055;-43
2021/10/09 11:30:33;;;;;;;4.07;2.20;;;;;;;30.73;18.33;94965.06;5068412;28;20055;-53
2021/10/09 11:33:01;;;;;;;2.80;2.25;;;;;;;30.95;18.29;94960.97;5072810;28;20067;-46
2021/10/09 11:35:29;;;;;;;3.88;2.28;;;;;;;29.76;19.89;94969.66;5063412;28;20075;-51
2021/10/09 11:37:57;;;;;;;5.03;2.97;;;;;;;30.55;20.08;94959.81;5055108;28;20057;-46
2021/10/09 11:40:31;;;;;;;4.78;3.33;;;;;;;31.63;19.35;94954.00;5069400;28;20045;-52
2021/10/09 11:43:23;;;;;;;3.50;2.80;;;;;;;31.88;19.03;94960.59;5073034;28;20059;-47
2021/10/09 11:54:34;;;;;;;5.38;3.45;;;;;;;33.53;17.82;94980.94;5053595;28;20376;-48
2021/10/09 11:57:04;;;;;;;6.00;3.53;;;;;;;33.41;17.68;94970.75;5070687;28;20048;-51
2021/10/09 11:59:38;;;;;;;6.03;3.20;;;;;;;34.89;17.28;94968.50;5052526;28;20048;-49
2021/10/09 12:02:06;;;;;;;5.47;3.90;;;;;;;38.21;14.40;94969.34;5054475;28;20060;-48
2021/10/09 12:04:34;;;;;;;3.88;3.25;;;;;;;33.63;17.83;94969.13;5053929;28;20049;-47
2021/10/09 12:09:34;;;;;;;4.25;3.08;;;;;;;34.29;17.14;94968.03;5057023;28;20060;-48
2021/10/09 12:12:16;;;;;;;3.53;3.00;;;;;;;34.28;17.27;94969.22;5035525;28;20063;-49
2021/10/09 12:14:43;;;;;;;4.30;2.97;;;;;;;34.41;17.20;94965.84;5052262;28;20079;-53
2021/10/09 12:17:10;;;;;;;4.50;3.10;;;;;;;34.55;17.25;94960.06;5066672;28;20047;-49
2021/10/09 12:19:37;;;;;;;6.53;3.85;;;;;;;37.63;15.67;94978.16;5053478;28;20355;-56
2021/10/09 12:22:12;;;;;;;6.50;4.07;;;;;;;37.14;15.71;94969.81;5053590;28;20052;-44
2021/10/09 12:24:45;;;;;;;4.22;3.80;;;;;;;34.20;17.23;94972.53;5053557;28;20056;-47
2021/10/09 12:27:18;;;;;;;5.40;4.13;;;;;;;34.50;17.05;94957.88;5058361;28;20044;-44
2021/10/09 12:29:57;;;;;;;5.97;4.97;;;;;;;34.55;17.14;94974.38;5072863;28;20048;-55
2021/10/09 12:32:24;;;;;;;7.57;5.03;;;;;;;34.45;16.87;94977.38;5072517;28;20048;-60
2021/10/09 12:35:17;;;;;;;6.60;5.72;;;;;;;34.71;17.01;94973.63;5076493;28;20052;-64
2021/10/09 12:38:13;;;;;;;6.13;4.78;;;;;;;35.96;15.33;94986.50;5070826;28;20045;-49
2021/10/09 12:40:41;;;;;;;5.20;4.55;;;;;;;34.83;15.87;94997.34;5056103;28;20079;-50
2021/10/09 12:43:13;;;;;;;5.80;4.55;;;;;;;33.80;16.74;94999.72;5070013;28;20052;-48
2021/10/09 12:45:41;;;;;;;4.80;4.22;;;;;;;33.57;16.87;95003.34;5074026;28;20060;-49
2021/10/09 12:48:08;;;;;;;5.35;4.40;;;;;;;32.80;17.82;94998.22;5057081;28;20367;-49
2021/10/09 12:50:38;;;;;;;5.22;4.47;;;;;;;32.64;18.05;95008.91;5066185;28;20447;-49
2021/10/09 12:53:06;;;;;;;5.47;4.70;;;;;;;32.46;18.04;95007.25;5067397;28;20056;-47
2021/10/09 12:55:34;;;;;;;5.65;4.85;;;;;;;32.55;17.65;95011.38;5056345;28;20060;-48
2021/10/09 12:58:04;;;;;;;6.00;4.90;;;;;;;32.41;17.72;95018.56;5067253;28;20051;-48
2021/10/09 13:00:32;;;;;;;5.40;4.90;;;;;;;32.10;18.25;95020.53;5047879;28;20052;-49
2021/10/09 13:03:00;;;;;;;7.15;5.45;;;;;;;32.03;17.96;95019.91;5076392;28;20063;-48
2021/10/09 13:05:30;;;;;;;9.77;8.85;;;;;;;32.24;18.24;95027.66;5075619;28;20048;-46
2021/10/09 13:07:58;;;;;;;21.05;18.98;;;;;;;32.56;18.15;95035.34;5075466;28;20048;-47
2021/10/09 13:10:26;;;;;;;11.75;10.65;;;;;;;32.64;18.00;95035.97;5076771;28;20044;-46
2021/10/09 13:12:53;;;;;;;13.02;7.32;;;;;;;32.94;17.42;95043.97;5076452;28;20048;-47
2021/10/09 13:15:20;;;;;;;8.52;7.25;;;;;;;33.56;17.56;95045.16;5066712;28;20045;-47
2021/10/09 13:17:49;;;;;;;7.22;6.47;;;;;;;32.67;17.58;95046.72;5065301;28;20359;-50
2021/10/09 13:20:17;;;;;;;6.03;5.00;;;;;;;32.67;17.83;95045.97;5076477;28;20051;-47
2021/10/09 13:22:45;;;;;;;4.60;3.97;;;;;;;32.18;17.87;95032.00;5068301;28;20048;-52
2021/10/09 13:25:12;;;;;;;6.18;4.20;;;;;;;32.53;17.61;95035.38;5076203;28;20044;-51
2021/10/09 13:27:39;;;;;;;4.75;4.30;;;;;;;32.45;17.49;95035.47;5075092;28;20052;-45
2021/10/09 13:30:07;;;;;;;7.20;4.63;;;;;;;31.14;19.86;95032.50;5063310;28;20060;-42
2021/10/09 13:32:36;;;;;;;53.72;8.13;;;;;;;31.79;19.47;95027.94;5064847;28;20056;-41
2021/10/09 13:35:03;;;;;;;29.38;26.30;;;;;;;32.37;19.56;95027.91;5056170;28;20052;-43
2021/10/09 13:37:36;;;;;;;21.88;6.43;;;;;;;32.65;18.88;95037.50;5057262;28;20041;-45
2021/10/09 13:40:03;;;;;;;8.80;5.07;;;;;;;33.40;18.29;95026.13;5039303;28;20048;-53
2021/10/09 13:42:30;;;;;;;11.23;5.00;;;;;;;32.84;19.07;95023.28;5058963;28;20052;-48
2021/10/09 13:44:57;;;;;;;6.93;4.90;;;;;;;33.39;18.25;95024.59;5075477;28;20040;-49
2021/10/09 13:47:25;;;;;;;5.03;4.40;;;;;;;33.84;17.72;95032.25;5074795;28;20063;-53
2021/10/09 13:49:52;;;;;;;4.95;4.45;;;;;;;33.67;17.65;95024.03;5076039;28;20059;-47
2021/10/09 13:52:19;;;;;;;9.18;5.20;;;;;;;33.90;17.80;95022.44;5075497;28;20059;-48
2021/10/09 13:54:46;;;;;;;8.98;5.82;;;;;;;34.16;17.57;95021.44;5076083;28;20047;-61